Time;durP1;ratioP1;P1;durP2;ratioP2;P2;SDS_P1;SDS_P2;PMS_P1;PMS_P2;Temp;Humidity;BMP_temperature;BMP_pressure;BME280_temperature;BME280_humidity;BME280_pressure;Samples;Min_cycle;Max_cycle;Signal;HPM_P1;HPM_P2
2024/01/07 00:02:07;;;;;;;;;;;;;;;0.39;100.00;101644.75;5031560;28;20007;-74
2024/01/07 00:04:34;;;;;;;;;;;;;;;0.39;100.00;101644.75;5053337;28;19928;-74
2024/01/07 00:06:59;;;;;;;;;;;;;;;0.38;100.00;101640.44;5039369;28;20402;-73
2024/01/07 00:09:25;;;;;;;;;;;;;;;0.38;100.00;101645.59;5055744;28;20007;-73
2024/01/07 00:11:50;;;;;;;;;;;;;;;0.38;100.00;101640.44;5032711;28;19966;-73
2024/01/07 00:14:16;;;;;;;;;;;;;;;0.40;100.00;101643.94;5046504;28;19919;-73
2024/01/07 00:16:42;;;;;;;;;;;;;;;0.38;100.00;101646.47;5056762;28;19928;-73
2024/01/07 00:19:08;;;;;;;;;;;;;;;0.39;100.00;101653.38;5027442;28;20331;-74
2024/01/07 00:21:33;;;;;;;;;;;;;;;0.43;100.00;101659.53;5053237;28;19939;-75
2024/01/07 00:23:58;;;;;;;;;;;;;;;0.39;100.00;101662.78;5029437;28;20303;-73
2024/01/07 00:26:26;;;;;;;;;;;;;;;0.38;100.00;101667.09;5052891;28;19960;-74
2024/01/07 00:28:51;;;;;;;;;;;;;;;0.40;100.00;101664.56;5056275;28;20445;-74
2024/01/07 00:31:17;;;;;;;;;;;;;;;0.34;100.00;101663.50;5026584;28;19920;-74
2024/01/07 00:33:42;;;;;;;;;;;;;;;0.38;100.00;101668.78;5037421;28;20390;-74
2024/01/07 00:36:07;;;;;;;;;;;;;;;0.34;100.00;101666.09;5036014;28;20361;-74
2024/01/07 00:38:33;;;;;;;;;;;;;;;0.33;100.00;101677.22;5048092;28;19966;-74
2024/01/07 00:40:58;;;;;;;;;;;;;;;0.34;100.00;101676.41;5023776;28;19970;-74
2024/01/07 00:43:23;;;;;;;;;;;;;;;0.37;100.00;101678.22;5037541;28;19989;-73
2024/01/07 00:45:49;;;;;;;;;;;;;;;0.31;100.00;101681.41;5050220;28;19981;-73
2024/01/07 00:48:15;;;;;;;;;;;;;;;0.32;100.00;101683.16;5066340;28;19920;-73
2024/01/07 00:50:40;;;;;;;;;;;;;;;0.32;100.00;101674.56;5045331;28;19924;-73
2024/01/07 00:53:06;;;;;;;;;;;;;;;0.30;100.00;101674.50;5030189;28;19928;-73
2024/01/07 00:55:32;;;;;;;;;;;;;;;0.31;100.00;101686.56;5036359;28;19929;-73
2024/01/07 00:57:57;;;;;;;;;;;;;;;0.30;100.00;101687.41;5049783;28;19923;-74
2024/01/07 01:00:22;;;;;;;;;;;;;;;0.32;100.00;101688.31;5031188;28;19921;-74
2024/01/07 01:02:48;;;;;;;;;;;;;;;0.28;100.00;101686.44;5043384;28;19938;-73
2024/01/07 01:05:13;;;;;;;;;;;;;;;0.26;100.00;101693.22;5042234;28;19921;-73
2024/01/07 01:07:38;;;;;;;;;;;;;;;0.30;100.00;101689.06;5054190;28;20410;-74
2024/01/07 01:10:04;;;;;;;;;;;;;;;0.28;100.00;101696.75;5036840;28;19917;-73
2024/01/07 01:12:29;;;;;;;;;;;;;;;0.27;100.00;101710.44;5055080;28;19954;-73
2024/01/07 01:14:55;;;;;;;;;;;;;;;0.28;100.00;101707.06;5037025;28;20195;-74
2024/01/07 01:17:22;;;;;;;;;;;;;;;0.26;100.00;101703.53;5056296;28;19924;-74
2024/01/07 01:19:47;;;;;;;;;;;;;;;0.27;100.00;101707.84;5035661;28;19932;-74
2024/01/07 01:22:13;;;;;;;;;;;;;;;0.28;100.00;101706.19;5051849;28;20007;-75
2024/01/07 01:24:38;;;;;;;;;;;;;;;0.27;100.00;101707.84;5035974;28;19928;-73
2024/01/07 01:27:03;;;;;;;;;;;;;;;0.28;100.00;101707.06;5036704;28;20371;-74
2024/01/07 01:29:29;;;;;;;;;;;;;;;0.32;100.00;101708.97;5038898;28;19924;-74
2024/01/07 01:31:54;;;;;;;;;;;;;;;0.26;100.00;101715.53;5037632;28;19917;-74
2024/01/07 01:34:19;;;;;;;;;;;;;;;0.27;100.00;101715.59;5032620;28;19932;-74
2024/01/07 01:36:45;;;;;;;;;;;;;;;0.28;100.00;101719.94;5034441;28;19924;-74
2024/01/07 01:39:10;;;;;;;;;;;;;;;0.22;100.00;101722.25;5031707;28;20014;-74
2024/01/07 01:41:35;;;;;;;;;;;;;;;0.25;100.00;101724.09;5050989;28;19952;-74
2024/01/07 01:44:01;;;;;;;;;;;;;;;0.33;100.00;101726.19;5036048;28;20007;-74
2024/01/07 01:46:28;;;;;;;;;;;;;;;0.30;100.00;101731.22;5056121;28;20356;-74
2024/01/07 01:48:54;;;;;;;;;;;;;;;0.24;100.00;101728.34;5052539;28;19994;-74
2024/01/07 01:51:20;;;;;;;;;;;;;;;0.23;100.00;101731.75;5034279;28;19929;-74
2024/01/07 01:53:47;;;;;;;;;;;;;;;0.25;100.00;101729.25;5036098;28;19920;-74
2024/01/07 01:56:13;;;;;;;;;;;;;;;0.23;100.00;101736.91;5046573;28;19921;-74
2024/01/07 01:58:38;;;;;;;;;;;;;;;0.24;100.00;101741.25;5054165;28;19916;-73
2024/01/07 02:01:04;;;;;;;;;;;;;;;0.27;100.00;101741.38;5031449;28;19921;-73
2024/01/07 02:03:29;;;;;;;;;;;;;;;0.30;100.00;101745.78;5051624;28;19929;-74
2024/01/07 02:05:55;;;;;;;;;;;;;;;0.24;100.00;101746.41;5028002;28;19940;-74
2024/01/07 02:08:23;;;;;;;;;;;;;;;0.21;100.00;101746.25;5073711;28;19924;-74
2024/01/07 02:10:48;;;;;;;;;;;;;;;0.22;100.00;101750.63;5025225;28;19924;-74
2024/01/07 02:13:14;;;;;;;;;;;;;;;0.22;100.00;101753.19;5022130;28;19921;-75
2024/01/07 02:15:39;;;;;;;;;;;;;;;0.19;100.00;101753.06;5035460;28;19932;-74
2024/01/07 02:18:05;;;;;;;;;;;;;;;0.24;100.00;101750.69;5028512;28;19932;-75
2024/01/07 02:20:30;;;;;;;;;;;;;;;0.23;100.00;101752.38;5032263;28;19925;-75
2024/01/07 02:22:59;;;;;;;;;;;;;;;0.23;100.00;101749.81;5040915;28;19920;-74
2024/01/07 02:25:24;;;;;;;;;;;;;;;0.22;100.00;101753.19;5034427;28;19921;-74
2024/01/07 02:27:50;;;;;;;;;;;;;;;0.27;100.00;101751.69;5053645;28;19916;-75
2024/01/07 02:30:15;;;;;;;;;;;;;;;0.29;100.00;101755.22;5028755;28;19931;-74
2024/01/07 02:32:41;;;;;;;;;;;;;;;0.31;100.00;101758.75;5048222;28;19952;-74
2024/01/07 02:35:06;;;;;;;;;;;;;;;0.22;100.00;101768.66;5033422;28;19928;-74
2024/01/07 02:37:31;;;;;;;;;;;;;;;0.23;100.00;101756.63;5023161;28;20380;-74
2024/01/07 02:39:57;;;;;;;;;;;;;;;0.20;100.00;101767.69;5054171;28;20261;-74
2024/01/07 02:42:22;;;;;;;;;;;;;;;0.19;100.00;101768.53;5034424;28;20364;-74
2024/01/07 02:44:48;;;;;;;;;;;;;;;0.21;100.00;101777.19;5039043;28;19960;-74
2024/01/07 02:47:13;;;;;;;;;;;;;;;0.19;100.00;101768.53;5049308;28;19995;-73
2024/01/07 02:49:39;;;;;;;;;;;;;;;0.22;100.00;101776.41;5035308;28;19947;-73
2024/01/07 02:52:04;;;;;;;;;;;;;;;0.24;100.00;101782.47;5033488;28;19920;-75
2024/01/07 02:54:29;;;;;;;;;;;;;;;0.21;100.00;101777.19;5035265;28;19924;-74
2024/01/07 02:56:55;;;;;;;;;;;;;;;0.23;100.00;101785.91;5036104;28;19920;-74
2024/01/07 02:59:20;;;;;;;;;;;;;;;0.23;100.00;101778.16;5042321;28;19975;-74
2024/01/07 03:01:46;;;;;;;;;;;;;;;0.26;100.00;101779.97;5048549;28;19925;-74
2024/01/07 03:04:12;;;;;;;;;;;;;;;0.31;100.00;101781.94;5045775;28;19950;-73
2024/01/07 03:06:38;;;;;;;;;;;;;;;0.29;100.00;101782.72;5038647;28;19924;-74
2024/01/07 03:09:03;;;;;;;;;;;;;;;0.28;100.00;101791.25;5021686;28;19920;-74
2024/01/07 03:11:29;;;;;;;;;;;;;;;0.25;100.00;101792.00;5027085;28;19970;-73
2024/01/07 03:13:56;;;;;;;;;;;;;;;0.30;100.00;101795.69;5034843;28;19929;-74
2024/01/07 03:16:22;;;;;;;;;;;;;;;0.29;100.00;101795.63;5036513;28;19928;-74
2024/01/07 03:18:47;;;;;;;;;;;;;;;0.27;100.00;101792.06;5049347;28;19922;-74
2024/01/07 03:21:19;;;;;;;;;;;;;;;0.26;100.00;101800.59;5024443;28;19920;-73
2024/01/07 03:23:45;;;;;;;;;;;;;;;0.28;100.00;101799.88;5051436;28;19931;-73
2024/01/07 03:26:10;;;;;;;;;;;;;;;0.32;100.00;101794.03;5032149;28;20015;-73
2024/01/07 03:28:35;;;;;;;;;;;;;;;0.33;100.00;101803.56;5027194;28;20001;-73
2024/01/07 03:31:04;;;;;;;;;;;;;;;0.30;100.00;101806.00;5030223;28;20016;-74
2024/01/07 03:33:31;;;;;;;;;;;;;;;0.28;100.00;101810.19;5050079;28;19947;-74
2024/01/07 03:35:56;;;;;;;;;;;;;;;0.34;100.00;101804.41;5028586;28;20374;-75
2024/01/07 03:38:21;;;;;;;;;;;;;;;0.32;100.00;101801.78;5035855;28;20027;-74
2024/01/07 03:40:47;;;;;;;;;;;;;;;0.26;100.00;101801.50;5053336;28;19920;-74
2024/01/07 03:43:13;;;;;;;;;;;;;;;0.25;100.00;101801.44;5035307;28;20007;-74
2024/01/07 03:45:38;;;;;;;;;;;;;;;0.33;100.00;101811.28;5032251;28;20288;-74
2024/01/07 03:48:04;;;;;;;;;;;;;;;0.25;100.00;101810.03;5030146;28;19921;-74
2024/01/07 03:50:29;;;;;;;;;;;;;;;0.21;100.00;101823.59;5027196;28;19925;-74
2024/01/07 03:52:55;;;;;;;;;;;;;;;0.24;100.00;101821.16;5050150;28;19978;-74
2024/01/07 03:55:20;;;;;;;;;;;;;;;0.20;100.00;101826.09;5052065;28;19920;-74
2024/01/07 03:57:48;;;;;;;;;;;;;;;0.19;100.00;101822.66;5028350;28;19982;-74
2024/01/07 04:00:13;;;;;;;;;;;;;;;0.21;100.00;101823.59;5032302;28;19931;-74
2024/01/07 04:02:38;;;;;;;;;;;;;;;0.23;100.00;101832.31;5026767;28;19928;-74
2024/01/07 04:05:04;;;;;;;;;;;;;;;0.26;100.00;101827.28;5033378;28;19952;-73
2024/01/07 04:07:30;;;;;;;;;;;;;;;0.21;100.00;101835.63;5025502;28;19928;-73
2024/01/07 04:09:55;;;;;;;;;;;;;;;0.26;100.00;101836.69;5051559;28;19924;-75
2024/01/07 04:12:20;;;;;;;;;;;;;;;0.23;100.00;101842.63;5030862;28;19920;-74
2024/01/07 04:14:46;;;;;;;;;;;;;;;0.23;100.00;101844.28;5022291;28;19921;-74
2024/01/07 04:17:12;;;;;;;;;;;;;;;0.21;100.00;101841.66;5034292;28;19925;-73
2024/01/07 04:19:38;;;;;;;;;;;;;;;0.12;100.00;101849.84;5035367;28;19920;-74
2024/01/07 04:22:03;;;;;;;;;;;;;;;0.12;100.00;101844.69;5029086;28;20414;-74
2024/01/07 04:24:28;;;;;;;;;;;;;;;0.18;100.00;101849.25;5035234;28;19925;-73
2024/01/07 04:26:54;;;;;;;;;;;;;;;0.12;100.00;101859.28;5033068;28;20376;-73
2024/01/07 04:29:19;;;;;;;;;;;;;;;0.09;100.00;101853.97;5033148;28;19928;-74
2024/01/07 04:31:44;;;;;;;;;;;;;;;0.10;100.00;101855.72;5030657;28;19924;-73
2024/01/07 04:34:10;;;;;;;;;;;;;;;0.13;100.00;101859.34;5021511;28;19924;-73
2024/01/07 04:36:35;;;;;;;;;;;;;;;0.13;100.00;101858.44;5025644;28;20278;-73
2024/01/07 04:39:00;;;;;;;;;;;;;;;0.11;100.00;101862.66;5029162;28;19920;-73
2024/01/07 04:41:26;;;;;;;;;;;;;;;0.10;100.00;101861.78;5043867;28;19917;-73
2024/01/07 04:43:52;;;;;;;;;;;;;;;0.15;100.00;101872.31;5026867;28;20027;-73
2024/01/07 04:46:17;;;;;;;;;;;;;;;0.16;100.00;101882.69;5038435;28;19987;-74
2024/01/07 04:48:44;;;;;;;;;;;;;;;0.06;100.00;101879.56;5046562;28;19921;-73
2024/01/07 04:51:09;;;;;;;;;;;;;;;0.13;100.00;101886.78;5025694;28;20395;-73
2024/01/07 04:53:35;;;;;;;;;;;;;;;0.05;100.00;101889.00;5038436;28;19931;-73
2024/01/07 04:56:00;;;;;;;;;;;;;;;0.04;100.00;101886.38;5027160;28;19994;-73
2024/01/07 04:58:26;;;;;;;;;;;;;;;0.06;100.00;101888.22;5034019;28;20375;-73
2024/01/07 05:00:51;;;;;;;;;;;;;;;0.03;100.00;101895.81;5032276;28;19954;-73
2024/01/07 05:03:16;;;;;;;;;;;;;;;0.12;100.00;101895.34;5056652;28;19916;-73
2024/01/07 05:05:44;;;;;;;;;;;;;;;0.07;100.00;101891.66;5054185;28;19925;-73
2024/01/07 05:08:09;;;;;;;;;;;;;;;0.21;100.00;101894.91;5038674;28;19931;-73
2024/01/07 05:10:35;;;;;;;;;;;;;;;-0.01;100.00;101888.72;5033595;28;19920;-74
2024/01/07 05:13:05;;;;;;;;;;;;;;;-0.03;100.00;101896.38;5032718;28;19947;-73
2024/01/07 05:15:31;;;;;;;;;;;;;;;-0.02;100.00;101894.69;5036179;28;19951;-73
2024/01/07 05:17:56;;;;;;;;;;;;;;;-0.02;100.00;101898.13;5034917;28;19925;-73
2024/01/07 05:20:21;;;;;;;;;;;;;;;-0.01;100.00;101897.34;5033098;28;19928;-73
2024/01/07 05:22:47;;;;;;;;;;;;;;;0.03;100.00;101903.53;5035821;28;19928;-74
2024/01/07 05:25:12;;;;;;;;;;;;;;;-0.04;100.00;101904.91;5028002;28;19921;-73
2024/01/07 05:27:37;;;;;;;;;;;;;;;-0.01;100.00;101910.22;5036547;28;19921;-73
2024/01/07 05:30:03;;;;;;;;;;;;;;;-0.07;100.00;101922.81;5054230;28;19975;-73
2024/01/07 05:32:29;;;;;;;;;;;;;;;0.01;100.00;101927.44;5024870;28;19925;-73
2024/01/07 05:34:55;;;;;;;;;;;;;;;-0.05;100.00;101933.19;5029630;28;19924;-73
2024/01/07 05:37:20;;;;;;;;;;;;;;;-0.09;100.00;101926.13;5023410;28;20430;-73
2024/01/07 05:39:47;;;;;;;;;;;;;;;-0.03;100.00;101936.72;5035107;28;19920;-73
2024/01/07 05:42:12;;;;;;;;;;;;;;;-0.06;100.00;101934.91;5051814;28;20257;-73
2024/01/07 05:44:37;;;;;;;;;;;;;;;-0.08;100.00;101933.91;5052304;28;19974;-74
2024/01/07 05:47:04;;;;;;;;;;;;;;;-0.07;100.00;101940.84;5036460;28;19927;-73
2024/01/07 05:49:29;;;;;;;;;;;;;;;-0.09;100.00;101947.59;5055553;28;19921;-73
2024/01/07 05:51:54;;;;;;;;;;;;;;;-0.07;100.00;101945.09;5031210;28;19928;-73
2024/01/07 05:54:20;;;;;;;;;;;;;;;-0.06;100.00;101947.78;5036826;28;20331;-73
2024/01/07 05:56:45;;;;;;;;;;;;;;;-0.13;100.00;101948.28;5025600;28;19935;-73
2024/01/07 05:59:10;;;;;;;;;;;;;;;-0.01;100.00;101956.59;5027700;28;19921;-73
2024/01/07 06:01:38;;;;;;;;;;;;;;;-0.05;100.00;101953.81;5052449;28;19979;-73
2024/01/07 06:04:03;;;;;;;;;;;;;;;-0.15;100.00;101965.34;5035619;28;19921;-73
2024/01/07 06:06:29;;;;;;;;;;;;;;;-0.21;100.00;101958.19;5051549;28;19990;-74
2024/01/07 06:08:54;;;;;;;;;;;;;;;-0.15;100.00;101967.91;5045840;28;19924;-76
2024/01/07 06:11:20;;;;;;;;;;;;;;;-0.19;100.00;101966.91;5036877;28;19928;-73
2024/01/07 06:13:46;;;;;;;;;;;;;;;-0.11;100.00;101968.97;5038508;28;19931;-73
2024/01/07 06:16:11;;;;;;;;;;;;;;;-0.27;100.00;101975.03;5054199;28;19933;-73
2024/01/07 06:18:37;;;;;;;;;;;;;;;-0.22;100.00;101966.72;5032997;28;19921;-76
2024/01/07 06:21:03;;;;;;;;;;;;;;;-0.26;100.00;101976.78;5039937;28;20392;-73
2024/01/07 06:23:29;;;;;;;;;;;;;;;-0.08;100.00;101975.16;5031286;28;20019;-73
2024/01/07 06:25:54;;;;;;;;;;;;;;;-0.28;100.00;101981.00;5032060;28;20549;-73
2024/01/07 06:28:20;;;;;;;;;;;;;;;-0.30;100.00;101985.16;5054350;28;19931;-74
2024/01/07 06:30:46;;;;;;;;;;;;;;;-0.20;100.00;101990.88;5028210;28;19920;-73
2024/01/07 06:33:12;;;;;;;;;;;;;;;-0.31;100.00;102016.91;5046773;28;19927;-73
2024/01/07 06:35:38;;;;;;;;;;;;;;;-0.33;100.00;102006.53;5035158;28;20009;-73
2024/01/07 06:38:04;;;;;;;;;;;;;;;-0.31;100.00;102012.63;5030988;28;19955;-73
2024/01/07 06:40:29;;;;;;;;;;;;;;;-0.22;100.00;102017.38;5031728;28;19932;-73
2024/01/07 06:42:54;;;;;;;;;;;;;;;-0.30;100.00;102016.06;5032144;28;19924;-74
2024/01/07 06:45:20;;;;;;;;;;;;;;;-0.42;100.00;102024.94;5070876;28;19927;-73
2024/01/07 06:47:46;;;;;;;;;;;;;;;-0.30;100.00;102034.09;5026882;28;19925;-74
2024/01/07 06:50:11;;;;;;;;;;;;;;;-0.21;100.00;102029.44;5036429;28;20322;-74
2024/01/07 06:52:36;;;;;;;;;;;;;;;-0.37;100.00;102041.53;5036859;28;19974;-73
2024/01/07 06:55:02;;;;;;;;;;;;;;;-0.26;100.00;102025.75;5028812;28;19982;-73
2024/01/07 06:57:27;;;;;;;;;;;;;;;-0.22;100.00;102038.84;5027794;28;19984;-74
2024/01/07 06:59:52;;;;;;;;;;;;;;;-0.33;100.00;102044.25;5029635;28;19928;-73
2024/01/07 07:02:19;;;;;;;;;;;;;;;-0.31;100.00;102042.66;5048185;28;19923;-74
2024/01/07 07:04:45;;;;;;;;;;;;;;;-0.37;100.00;102049.25;5045794;28;19921;-73
2024/01/07 07:07:10;;;;;;;;;;;;;;;-0.47;100.00;102053.84;5034999;28;19924;-74
2024/01/07 07:09:35;;;;;;;;;;;;;;;-0.48;100.00;102055.53;5031989;28;19920;-73
2024/01/07 07:12:01;;;;;;;;;;;;;;;-0.43;100.00;102056.66;5029913;28;20008;-74
2024/01/07 07:14:26;;;;;;;;;;;;;;;-0.42;100.00;102061.00;5029799;28;19964;-73
2024/01/07 07:16:51;;;;;;;;;;;;;;;-0.32;100.00;102066.66;5037142;28;20381;-74
2024/01/07 07:19:17;;;;;;;;;;;;;;;-0.41;100.00;102064.47;5053509;28;20709;-74
2024/01/07 07:21:44;;;;;;;;;;;;;;;-0.53;100.00;102072.44;5043373;28;19916;-73
2024/01/07 07:24:09;;;;;;;;;;;;;;;-0.49;100.00;102083.78;5027071;28;19924;-74
2024/01/07 07:26:35;;;;;;;;;;;;;;;-0.53;100.00;102083.63;5029522;28;19935;-73
2024/01/07 07:29:01;;;;;;;;;;;;;;;-0.54;100.00;102084.41;5029537;28;20277;-73
2024/01/07 07:31:27;;;;;;;;;;;;;;;-0.41;100.00;102098.81;5051058;28;19924;-75
2024/01/07 07:33:52;;;;;;;;;;;;;;;-0.55;100.00;102090.38;5033797;28;19952;-74
2024/01/07 07:36:17;;;;;;;;;;;;;;;-0.60;100.00;102096.09;5029336;28;19929;-73
2024/01/07 07:38:43;;;;;;;;;;;;;;;-0.54;100.00;102105.00;5053103;28;19947;-73
2024/01/07 07:41:08;;;;;;;;;;;;;;;-0.57;100.00;102114.28;5046459;28;19940;-74
2024/01/07 07:43:34;;;;;;;;;;;;;;;-0.53;100.00;102114.50;5027976;28;20376;-74
2024/01/07 07:46:01;;;;;;;;;;;;;;;-0.43;100.00;102117.56;5052463;28;20370;-75
2024/01/07 07:48:27;;;;;;;;;;;;;;;-0.57;100.00;102122.88;5053253;28;20003;-74
2024/01/07 07:50:53;;;;;;;;;;;;;;;-0.47;100.00;102128.53;5050287;28;20410;-73
2024/01/07 07:53:22;;;;;;;;;;;;;;;-0.57;100.00;102133.16;5033108;28;19928;-74
2024/01/07 07:55:47;;;;;;;;;;;;;;;-0.52;100.00;102143.72;5030707;28;20029;-74
2024/01/07 07:58:13;;;;;;;;;;;;;;;-0.51;100.00;102142.03;5035814;28;20368;-77
2024/01/07 08:00:38;;;;;;;;;;;;;;;-0.50;100.00;102143.78;5046582;28;19952;-74
2024/01/07 08:03:04;;;;;;;;;;;;;;;-0.58;100.00;102145.97;5028506;28;20360;-78
2024/01/07 08:05:29;;;;;;;;;;;;;;;-0.60;100.00;102150.16;5050071;28;20309;-75
2024/01/07 08:07:56;;;;;;;;;;;;;;;-0.68;100.00;102144.56;5053339;28;19970;-74
2024/01/07 08:10:22;;;;;;;;;;;;;;;-0.66;100.00;102149.78;5030818;28;19967;-76
2024/01/07 08:12:49;;;;;;;;;;;;;;;-0.50;100.00;102152.44;5032798;28;19963;-73
2024/01/07 08:15:14;;;;;;;;;;;;;;;-0.67;100.00;102148.94;5034258;28;19920;-74
2024/01/07 08:17:40;;;;;;;;;;;;;;;-0.64;100.00;102155.94;5034893;28;19993;-74
2024/01/07 08:20:05;;;;;;;;;;;;;;;-0.62;100.00;102159.47;5055437;28;19960;-75
2024/01/07 08:22:31;;;;;;;;;;;;;;;-0.59;100.00;102157.06;5038682;28;20335;-73
2024/01/07 08:24:57;;;;;;;;;;;;;;;-0.59;100.00;102163.13;5023214;28;19999;-73
2024/01/07 08:27:22;;;;;;;;;;;;;;;-0.64;100.00;102166.22;5053950;28;20376;-74
2024/01/07 08:29:47;;;;;;;;;;;;;;;-0.65;100.00;102167.91;5033550;28;19925;-74
2024/01/07 08:32:13;;;;;;;;;;;;;;;-0.67;100.00;102172.09;5039346;28;19927;-74
2024/01/07 08:34:39;;;;;;;;;;;;;;;-0.55;100.00;102177.94;5037084;28;19924;-75
2024/01/07 08:37:05;;;;;;;;;;;;;;;-0.66;100.00;102178.13;5053180;28;19920;-73
2024/01/07 08:39:30;;;;;;;;;;;;;;;-0.59;100.00;102176.00;5049807;28;20351;-74
2024/01/07 08:41:56;;;;;;;;;;;;;;;-0.51;100.00;102184.13;5033256;28;19921;-73
2024/01/07 08:44:21;;;;;;;;;;;;;;;-0.62;100.00;102192.94;5029890;28;20280;-74
2024/01/07 08:46:46;;;;;;;;;;;;;;;-0.62;100.00;102200.66;5039033;28;19959;-74
2024/01/07 08:49:13;;;;;;;;;;;;;;;-0.66;100.00;102202.19;5032525;28;19983;-76
2024/01/07 08:51:39;;;;;;;;;;;;;;;-0.73;100.00;102198.38;5031154;28;19921;-75
2024/01/07 08:54:04;;;;;;;;;;;;;;;-0.61;100.00;102200.75;5030231;28;19927;-76
2024/01/07 08:56:30;;;;;;;;;;;;;;;-0.67;100.00;102202.13;5030945;28;19936;-74
2024/01/07 08:58:55;;;;;;;;;;;;;;;-0.64;100.00;102208.31;5038037;28;19924;-75
2024/01/07 09:01:20;;;;;;;;;;;;;;;-0.59;100.00;102205.97;5054014;28;19920;-75
2024/01/07 09:07:16;;;;;;;;;;;;;;;-0.75;100.00;102220.59;4972555;28;19972;-76
2024/01/07 09:09:42;;;;;;;;;;;;;;;-0.68;100.00;102223.50;4942187;28;20433;-74
2024/01/07 09:12:08;;;;;;;;;;;;;;;-0.57;100.00;102235.28;5013556;28;19921;-75
2024/01/07 09:14:33;;;;;;;;;;;;;;;-0.68;100.00;102233.78;5035629;28;19920;-77
2024/01/07 09:16:59;;;;;;;;;;;;;;;-0.57;100.00;102240.44;5032834;28;20110;-76
2024/01/07 09:19:24;;;;;;;;;;;;;;;-0.66;100.00;102239.91;5073889;28;20028;-74
2024/01/07 09:21:49;;;;;;;;;;;;;;;-0.73;100.00;102243.84;5038598;28;20005;-75
2024/01/07 09:24:15;;;;;;;;;;;;;;;-0.64;100.00;102248.63;5045686;28;20085;-75
2024/01/07 09:26:40;;;;;;;;;;;;;;;-0.71;100.00;102252.53;5029658;28;19928;-74
2024/01/07 09:29:05;;;;;;;;;;;;;;;-0.71;100.00;102244.81;5034404;28;19928;-74
2024/01/07 09:39:12;;;;;;;;;;;;;;;-0.78;100.00;102271.88;5053254;28;19928;-75
2024/01/07 09:41:39;;;;;;;;;;;;;;;-0.80;100.00;102273.47;5347136;22;19931;-74
2024/01/07 09:44:06;;;;;;;;;;;;;;;-0.79;100.00;102280.41;5057222;28;20019;-76
2024/01/07 09:46:32;;;;;;;;;;;;;;;-0.73;100.00;102283.31;5071246;28;19923;-76
2024/01/07 09:48:57;;;;;;;;;;;;;;;-0.75;100.00;102274.66;5052105;28;19921;-75
2024/01/07 09:51:23;;;;;;;;;;;;;;;-0.69;100.00;102284.38;5048661;28;20016;-78
2024/01/07 09:53:53;;;;;;;;;;;;;;;-0.78;100.00;102283.88;5054146;28;19974;-75
2024/01/07 09:56:25;;;;;;;;;;;;;;;-0.74;100.00;102299.56;5057763;28;19920;-76
2024/01/07 09:58:50;;;;;;;;;;;;;;;-0.89;100.00;102291.84;5034566;28;20461;-78
2024/01/07 10:01:19;;;;;;;;;;;;;;;-0.73;100.00;102288.47;5038473;28;19920;-75
2024/01/07 10:03:45;;;;;;;;;;;;;;;-0.78;100.00;102300.19;5024283;28;19921;-75
2024/01/07 10:06:13;;;;;;;;;;;;;;;-0.65;100.00;102291.47;5053875;28;20035;-77
2024/01/07 10:08:38;;;;;;;;;;;;;;;-0.59;100.00;102308.97;5039200;28;19942;-75
2024/01/07 10:11:04;;;;;;;;;;;;;;;-0.67;100.00;102310.25;5037804;28;19921;-78
2024/01/07 10:13:30;;;;;;;;;;;;;;;-0.75;100.00;102308.09;5047893;28;20356;-77
2024/01/07 10:15:56;;;;;;;;;;;;;;;-0.81;100.00;102317.16;5035324;28;19960;-77
2024/01/07 10:18:22;;;;;;;;;;;;;;;-0.71;100.00;102320.34;5052115;28;19962;-77
2024/01/07 10:20:47;;;;;;;;;;;;;;;-0.79;100.00;102311.31;5038386;28;19927;-75
2024/01/07 10:23:19;;;;;;;;;;;;;;;-0.78;100.00;102309.59;5033967;28;19924;-76
2024/01/07 10:25:44;;;;;;;;;;;;;;;-0.76;100.00;102308.91;5042400;28;20356;-75
2024/01/07 10:28:10;;;;;;;;;;;;;;;-0.73;100.00;102324.53;5055370;28;19923;-79
2024/01/07 10:30:38;;;;;;;;;;;;;;;-0.78;100.00;102323.34;5038708;28;19927;-77
2024/01/07 10:33:04;;;;;;;;;;;;;;;-0.75;99.81;102326.13;5055106;28;19930;-79
2024/01/07 10:35:33;;;;;;;;;;;;;;;-0.69;99.64;102328.16;5053161;28;20434;-75
2024/01/07 10:37:59;;;;;;;;;;;;;;;-0.72;99.98;102326.31;5054896;28;19923;-78
2024/01/07 10:40:26;;;;;;;;;;;;;;;-0.75;99.08;102323.56;5072583;28;19924;-75
2024/01/07 10:42:54;;;;;;;;;;;;;;;-0.72;99.95;102331.44;5054439;28;19913;-76
2024/01/07 10:45:19;;;;;;;;;;;;;;;-0.69;99.67;102325.56;5054900;28;19913;-75
2024/01/07 10:47:50;;;;;;;;;;;;;;;-0.62;98.84;102335.44;5037557;28;19932;-76
2024/01/07 10:50:17;;;;;;;;;;;;;;;-0.67;99.88;102320.53;5044306;28;20441;-74
2024/01/07 10:52:42;;;;;;;;;;;;;;;-0.60;99.83;102320.09;5035046;28;19917;-77
2024/01/07 10:55:09;;;;;;;;;;;;;;;-0.56;99.78;102325.50;5034438;28;20384;-76
2024/01/07 10:57:40;;;;;;;;;;;;;;;-0.37;97.67;102332.59;5034151;28;19970;-79
2024/01/07 11:00:07;;;;;;;;;;;;;;;-0.33;97.86;102318.22;5035190;28;19916;-78
2024/01/07 11:02:38;;;;;;;;;;;;;;;-0.41;98.21;102330.63;5018476;28;20411;-77
2024/01/07 11:05:09;;;;;;;;;;;;;;;-0.47;98.20;102337.13;5045365;28;19912;-76
2024/01/07 11:07:37;;;;;;;;;;;;;;;-0.33;97.88;102327.59;5054587;28;19965;-75
2024/01/07 11:10:11;;;;;;;;;;;;;;;-0.39;98.51;102333.28;5054046;28;19974;-75
2024/01/07 11:12:37;;;;;;;;;;;;;;;-0.37;97.57;102330.00;5046682;28;20358;-75
2024/01/07 11:15:03;;;;;;;;;;;;;;;-0.24;96.72;102339.31;5036458;28;19963;-78
2024/01/07 11:17:32;;;;;;;;;;;;;;;-0.29;96.95;102351.03;5034130;28;20376;-76
2024/01/07 11:20:01;;;;;;;;;;;;;;;-0.33;97.72;102353.34;5034418;28;20364;-79
2024/01/07 11:22:28;;;;;;;;;;;;;;;-0.39;97.21;102352.22;5017568;28;20255;-76
2024/01/07 11:24:56;;;;;;;;;;;;;;;-0.35;97.62;102356.72;5018600;28;19924;-75
2024/01/07 11:27:24;;;;;;;;;;;;;;;-0.26;96.93;102355.47;5033960;28;19913;-76
2024/01/07 11:29:53;;;;;;;;;;;;;;;-0.31;96.82;102352.66;5034025;28;19913;-76
2024/01/07 11:32:18;;;;;;;;;;;;;;;-0.29;96.01;102355.31;5034244;28;19917;-75
2024/01/07 11:34:46;;;;;;;;;;;;;;;-0.32;95.90;102355.16;5041806;28;19928;-74
2024/01/07 11:37:12;;;;;;;;;;;;;;;-0.37;96.36;102353.19;5053219;28;19928;-76
2024/01/07 11:39:38;;;;;;;;;;;;;;;-0.36;96.09;102354.06;5053767;28;19946;-76
2024/01/07 11:42:03;;;;;;;;;;;;;;;-0.38;96.44;102351.41;5053174;28;19973;-75
2024/01/07 11:44:29;;;;;;;;;;;;;;;-0.16;94.06;102362.06;5035876;28;20020;-76
2024/01/07 11:46:54;;;;;;;;;;;;;;;-0.17;94.87;102345.72;5053882;28;19920;-74
2024/01/07 11:49:19;;;;;;;;;;;;;;;-0.16;93.82;102351.75;5037729;28;19932;-78
2024/01/07 11:51:46;;;;;;;;;;;;;;;-0.11;93.44;102350.34;5036432;28;19927;-79
2024/01/07 11:54:11;;;;;;;;;;;;;;;-0.16;93.64;102354.31;5031009;28;19921;-75
2024/01/07 11:56:37;;;;;;;;;;;;;;;-0.08;93.89;102351.38;5033086;28;19920;-75
2024/01/07 11:59:03;;;;;;;;;;;;;;;-0.12;94.14;102346.84;5017757;28;19917;-77
2024/01/07 12:01:28;;;;;;;;;;;;;;;-0.07;94.09;102341.94;5017461;28;19917;-75
2024/01/07 12:03:54;;;;;;;;;;;;;;;0.02;93.41;102342.47;5035127;28;20323;-76
2024/01/07 12:06:20;;;;;;;;;;;;;;;0.02;92.57;102347.63;5034622;28;20384;-75
2024/01/07 12:08:46;;;;;;;;;;;;;;;0.09;92.10;102348.88;5053887;28;19923;-79
2024/01/07 12:11:12;;;;;;;;;;;;;;;0.20;92.00;102350.31;5052468;28;20393;-78
2024/01/07 12:13:37;;;;;;;;;;;;;;;0.19;90.37;102358.88;5053947;28;19921;-80
2024/01/07 12:16:03;;;;;;;;;;;;;;;0.13;90.69;102348.19;5053381;28;20020;-75
2024/01/07 12:18:29;;;;;;;;;;;;;;;0.05;91.88;102346.91;5053843;28;20015;-76
2024/01/07 12:21:00;;;;;;;;;;;;;;;0.00;92.02;102356.97;5035330;28;20016;-75
2024/01/07 12:23:26;;;;;;;;;;;;;;;0.02;91.65;102352.78;5033842;28;19917;-75
2024/01/07 12:25:52;;;;;;;;;;;;;;;-0.12;92.73;102354.56;5049088;28;19917;-75
2024/01/07 12:28:20;;;;;;;;;;;;;;;-0.04;91.93;102366.22;5017333;28;20322;-75
2024/01/07 12:30:48;;;;;;;;;;;;;;;-0.18;92.31;102367.13;5017265;28;20395;-76
2024/01/07 12:33:20;;;;;;;;;;;;;;;-0.23;92.22;102372.03;5050746;28;19923;-76
2024/01/07 12:35:46;;;;;;;;;;;;;;;-0.25;92.43;102371.03;5036515;28;20121;-76
2024/01/07 12:38:11;;;;;;;;;;;;;;;-0.21;91.71;102375.56;5051737;28;19924;-77